sensor_id;sensor_type;location;lat;lon;timestamp;P1;durP1;ratioP1;P2;durP2;ratioP2
81894;SDS011;71358;45.642;13.758;2023-08-08T10:32:38;2.55;;;0.80;;
81894;SDS011;71358;45.642;13.758;2023-08-08T10:35:34;2.70;;;0.80;;
81894;SDS011;71358;45.642;13.758;2023-08-08T10:38:22;1.63;;;0.90;;
81894;SDS011;71358;45.642;13.758;2023-08-08T10:41:28;1.15;;;0.77;;
81894;SDS011;71358;45.642;13.758;2023-08-08T10:44:12;2.40;;;1.00;;
81894;SDS011;71358;45.642;13.758;2023-08-08T10:46:56;3.88;;;1.27;;
81894;SDS011;71358;45.642;13.758;2023-08-08T10:49:41;2.92;;;0.68;;
81894;SDS011;71358;45.642;13.758;2023-08-08T10:52:26;5.35;;;1.33;;
81894;SDS011;71358;45.642;13.758;2023-08-08T10:55:18;1.40;;;1.17;;
81894;SDS011;71358;45.642;13.758;2023-08-08T10:58:10;3.38;;;1.13;;
81894;SDS011;71358;45.642;13.758;2023-08-08T11:01:03;1.50;;;0.73;;
81894;SDS011;71358;45.642;13.758;2023-08-08T11:03:52;3.35;;;0.98;;
81894;SDS011;71358;45.642;13.758;2023-08-08T11:06:38;1.65;;;0.80;;
81894;SDS011;71358;45.642;13.758;2023-08-08T11:09:23;1.15;;;0.70;;
81894;SDS011;71358;45.642;13.758;2023-08-08T11:12:14;0.60;;;0.60;;
81894;SDS011;71358;45.642;13.758;2023-08-08T11:14:58;0.57;;;0.50;;
81894;SDS011;71358;45.642;13.758;2023-08-08T11:17:43;0.70;;;0.70;;
81894;SDS011;71358;45.642;13.758;2023-08-08T11:20:30;0.82;;;0.80;;
81894;SDS011;71358;45.642;13.758;2023-08-08T11:23:16;2.70;;;0.70;;
81894;SDS011;71358;45.642;13.758;2023-08-08T11:26:01;0.73;;;0.60;;
81894;SDS011;71358;45.642;13.758;2023-08-08T11:28:52;1.42;;;0.70;;
81894;SDS011;71358;45.642;13.758;2023-08-08T11:31:36;1.42;;;0.60;;
81894;SDS011;71358;45.642;13.758;2023-08-08T11:34:21;2.03;;;0.88;;
81894;SDS011;71358;45.642;13.758;2023-08-08T11:37:06;0.95;;;0.50;;
81894;SDS011;71358;45.642;13.758;2023-08-08T11:39:52;2.22;;;0.80;;
81894;SDS011;71358;45.642;13.758;2023-08-08T11:42:37;1.10;;;0.88;;
81894;SDS011;71358;45.642;13.758;2023-08-08T11:45:22;1.45;;;0.70;;
81894;SDS011;71358;45.642;13.758;2023-08-08T11:48:07;1.10;;;1.00;;
81894;SDS011;71358;45.642;13.758;2023-08-08T11:50:53;1.15;;;1.08;;
81894;SDS011;71358;45.642;13.758;2023-08-08T11:53:47;1.13;;;1.13;;
81894;SDS011;71358;45.642;13.758;2023-08-08T11:56:34;1.42;;;1.42;;
81894;SDS011;71358;45.642;13.758;2023-08-08T11:59:19;1.27;;;1.20;;
81894;SDS011;71358;45.642;13.758;2023-08-08T12:02:04;1.10;;;1.10;;
81894;SDS011;71358;45.642;13.758;2023-08-08T12:04:49;1.10;;;1.00;;
81894;SDS011;71358;45.642;13.758;2023-08-08T12:07:33;1.23;;;0.90;;
81894;SDS011;71358;45.642;13.758;2023-08-08T12:10:19;1.05;;;0.70;;
81894;SDS011;71358;45.642;13.758;2023-08-08T12:13:05;0.70;;;0.70;;
81894;SDS011;71358;45.642;13.758;2023-08-08T12:15:53;0.70;;;0.70;;
81894;SDS011;71358;45.642;13.758;2023-08-08T12:18:38;0.45;;;0.45;;
81894;SDS011;71358;45.642;13.758;2023-08-08T12:21:23;0.60;;;0.60;;
81894;SDS011;71358;45.642;13.758;2023-08-08T12:24:07;1.85;;;0.65;;
81894;SDS011;71358;45.642;13.758;2023-08-08T12:26:52;0.55;;;0.50;;
81894;SDS011;71358;45.642;13.758;2023-08-08T12:29:36;1.42;;;0.68;;
81894;SDS011;71358;45.642;13.758;2023-08-08T12:32:21;1.58;;;0.60;;
81894;SDS011;71358;45.642;13.758;2023-08-08T12:35:08;1.02;;;0.70;;
81894;SDS011;71358;45.642;13.758;2023-08-08T12:37:53;0.40;;;0.40;;
81894;SDS011;71358;45.642;13.758;2023-08-08T12:40:37;0.60;;;0.60;;
81894;SDS011;71358;45.642;13.758;2023-08-08T12:43:22;0.50;;;0.50;;
81894;SDS011;71358;45.642;13.758;2023-08-08T12:46:07;0.63;;;0.50;;
81894;SDS011;71358;45.642;13.758;2023-08-08T12:48:51;0.93;;;0.77;;
81894;SDS011;71358;45.642;13.758;2023-08-08T12:51:36;2.78;;;0.70;;
81894;SDS011;71358;45.642;13.758;2023-08-08T12:54:21;1.08;;;0.80;;
81894;SDS011;71358;45.642;13.758;2023-08-08T12:57:06;1.00;;;0.60;;
81894;SDS011;71358;45.642;13.758;2023-08-08T12:59:50;0.60;;;0.60;;
81894;SDS011;71358;45.642;13.758;2023-08-08T13:02:35;1.20;;;0.70;;
81894;SDS011;71358;45.642;13.758;2023-08-08T13:05:21;0.82;;;0.68;;
81894;SDS011;71358;45.642;13.758;2023-08-08T13:08:05;1.48;;;0.88;;
81894;SDS011;71358;45.642;13.758;2023-08-08T13:10:50;0.60;;;0.45;;
81894;SDS011;71358;45.642;13.758;2023-08-08T13:13:35;0.80;;;0.60;;
81894;SDS011;71358;45.642;13.758;2023-08-08T13:16:19;1.25;;;0.88;;
81894;SDS011;71358;45.642;13.758;2023-08-08T13:19:04;1.35;;;0.70;;
81894;SDS011;71358;45.642;13.758;2023-08-08T13:21:49;1.15;;;0.70;;
81894;SDS011;71358;45.642;13.758;2023-08-08T13:24:34;1.25;;;0.90;;
81894;SDS011;71358;45.642;13.758;2023-08-08T13:27:18;1.05;;;0.95;;
81894;SDS011;71358;45.642;13.758;2023-08-08T13:30:04;1.00;;;0.80;;
81894;SDS011;71358;45.642;13.758;2023-08-08T13:32:49;1.08;;;0.88;;
81894;SDS011;71358;45.642;13.758;2023-08-08T13:35:34;0.98;;;0.82;;
81894;SDS011;71358;45.642;13.758;2023-08-08T13:38:18;1.27;;;1.02;;
81894;SDS011;71358;45.642;13.758;2023-08-08T13:41:03;1.73;;;0.82;;
81894;SDS011;71358;45.642;13.758;2023-08-08T13:43:47;1.52;;;0.70;;
81894;SDS011;71358;45.642;13.758;2023-08-08T13:46:32;0.93;;;0.82;;
81894;SDS011;71358;45.642;13.758;2023-08-08T13:49:16;2.60;;;1.05;;
81894;SDS011;71358;45.642;13.758;2023-08-08T13:52:01;1.05;;;0.88;;
81894;SDS011;71358;45.642;13.758;2023-08-08T13:54:46;1.40;;;0.75;;
81894;SDS011;71358;45.642;13.758;2023-08-08T13:57:30;1.83;;;0.80;;
81894;SDS011;71358;45.642;13.758;2023-08-08T14:00:15;1.10;;;1.00;;
81894;SDS011;71358;45.642;13.758;2023-08-08T14:03:00;3.35;;;1.05;;
81894;SDS011;71358;45.642;13.758;2023-08-08T14:05:45;3.30;;;1.10;;
81894;SDS011;71358;45.642;13.758;2023-08-08T14:08:30;1.15;;;0.80;;
81894;SDS011;71358;45.642;13.758;2023-08-08T14:11:14;1.13;;;1.02;;
81894;SDS011;71358;45.642;13.758;2023-08-08T14:13:59;0.98;;;0.88;;
81894;SDS011;71358;45.642;13.758;2023-08-08T14:16:44;0.70;;;0.60;;
81894;SDS011;71358;45.642;13.758;2023-08-08T14:19:28;1.17;;;0.80;;
81894;SDS011;71358;45.642;13.758;2023-08-08T14:22:13;2.08;;;1.15;;
81894;SDS011;71358;45.642;13.758;2023-08-08T14:24:57;1.45;;;0.85;;
81894;SDS011;71358;45.642;13.758;2023-08-08T14:27:42;0.98;;;0.60;;
81894;SDS011;71358;45.642;13.758;2023-08-08T14:30:27;0.77;;;0.70;;
81894;SDS011;71358;45.642;13.758;2023-08-08T14:33:15;1.17;;;0.70;;
81894;SDS011;71358;45.642;13.758;2023-08-08T14:36:00;0.80;;;0.60;;
81894;SDS011;71358;45.642;13.758;2023-08-08T14:38:44;0.60;;;0.57;;
81894;SDS011;71358;45.642;13.758;2023-08-08T14:41:29;0.98;;;0.73;;
81894;SDS011;71358;45.642;13.758;2023-08-08T14:44:13;1.08;;;0.68;;
81894;SDS011;71358;45.642;13.758;2023-08-08T14:46:58;0.80;;;0.80;;
81894;SDS011;71358;45.642;13.758;2023-08-08T14:49:43;0.85;;;0.85;;
81894;SDS011;71358;45.642;13.758;2023-08-08T14:52:27;0.68;;;0.55;;
81894;SDS011;71358;45.642;13.758;2023-08-08T14:55:12;0.95;;;0.70;;
81894;SDS011;71358;45.642;13.758;2023-08-08T14:57:56;1.48;;;0.75;;
81894;SDS011;71358;45.642;13.758;2023-08-08T15:00:41;1.20;;;0.60;;
81894;SDS011;71358;45.642;13.758;2023-08-08T15:03:26;0.88;;;0.60;;
81894;SDS011;71358;45.642;13.758;2023-08-08T15:06:10;0.95;;;0.60;;
81894;SDS011;71358;45.642;13.758;2023-08-08T15:08:55;1.92;;;0.70;;
81894;SDS011;71358;45.642;13.758;2023-08-08T15:11:40;0.60;;;0.60;;
81894;SDS011;71358;45.642;13.758;2023-08-08T15:14:24;3.75;;;0.80;;
81894;SDS011;71358;45.642;13.758;2023-08-08T15:17:09;1.77;;;0.82;;
81894;SDS011;71358;45.642;13.758;2023-08-08T15:19:54;2.00;;;0.63;;
81894;SDS011;71358;45.642;13.758;2023-08-08T15:22:38;1.10;;;0.63;;
81894;SDS011;71358;45.642;13.758;2023-08-08T15:25:23;1.88;;;0.65;;
81894;SDS011;71358;45.642;13.758;2023-08-08T15:28:07;0.88;;;0.57;;
81894;SDS011;71358;45.642;13.758;2023-08-08T15:30:52;0.50;;;0.50;;
81894;SDS011;71358;45.642;13.758;2023-08-08T15:33:37;1.20;;;0.63;;
81894;SDS011;71358;45.642;13.758;2023-08-08T15:36:22;0.77;;;0.60;;
81894;SDS011;71358;45.642;13.758;2023-08-08T15:39:06;0.73;;;0.73;;
81894;SDS011;71358;45.642;13.758;2023-08-08T15:41:51;0.65;;;0.50;;
81894;SDS011;71358;45.642;13.758;2023-08-08T15:44:36;0.40;;;0.40;;
81894;SDS011;71358;45.642;13.758;2023-08-08T15:47:20;0.68;;;0.57;;
81894;SDS011;71358;45.642;13.758;2023-08-08T15:50:06;0.50;;;0.35;;
81894;SDS011;71358;45.642;13.758;2023-08-08T15:52:50;0.82;;;0.70;;
81894;SDS011;71358;45.642;13.758;2023-08-08T15:55:38;1.33;;;0.55;;
81894;SDS011;71358;45.642;13.758;2023-08-08T15:58:23;2.63;;;0.60;;
81894;SDS011;71358;45.642;13.758;2023-08-08T16:01:07;0.60;;;0.60;;
81894;SDS011;71358;45.642;13.758;2023-08-08T16:03:52;0.70;;;0.60;;
81894;SDS011;71358;45.642;13.758;2023-08-08T16:06:36;0.63;;;0.47;;
81894;SDS011;71358;45.642;13.758;2023-08-08T16:09:21;0.65;;;0.52;;
81894;SDS011;71358;45.642;13.758;2023-08-08T16:12:06;0.73;;;0.70;;
81894;SDS011;71358;45.642;13.758;2023-08-08T16:14:50;0.50;;;0.50;;
81894;SDS011;71358;45.642;13.758;2023-08-08T16:17:35;2.15;;;0.60;;
81894;SDS011;71358;45.642;13.758;2023-08-08T16:20:19;1.30;;;0.68;;
81894;SDS011;71358;45.642;13.758;2023-08-08T16:23:04;1.52;;;1.10;;
81894;SDS011;71358;45.642;13.758;2023-08-08T16:25:49;2.53;;;0.98;;
81894;SDS011;71358;45.642;13.758;2023-08-08T16:28:33;0.90;;;0.80;;
81894;SDS011;71358;45.642;13.758;2023-08-08T16:31:20;2.63;;;0.90;;
81894;SDS011;71358;45.642;13.758;2023-08-08T16:34:04;2.10;;;0.90;;
81894;SDS011;71358;45.642;13.758;2023-08-08T16:36:49;0.82;;;0.82;;
81894;SDS011;71358;45.642;13.758;2023-08-08T16:39:34;1.10;;;1.00;;
81894;SDS011;71358;45.642;13.758;2023-08-08T16:42:18;1.38;;;0.70;;
81894;SDS011;71358;45.642;13.758;2023-08-08T16:45:04;1.60;;;0.70;;
81894;SDS011;71358;45.642;13.758;2023-08-08T16:47:49;2.80;;;0.80;;
81894;SDS011;71358;45.642;13.758;2023-08-08T16:50:33;0.85;;;0.85;;
81894;SDS011;71358;45.642;13.758;2023-08-08T16:53:18;0.80;;;0.80;;
81894;SDS011;71358;45.642;13.758;2023-08-08T16:56:02;1.08;;;0.82;;
81894;SDS011;71358;45.642;13.758;2023-08-08T16:58:50;0.90;;;0.90;;
81894;SDS011;71358;45.642;13.758;2023-08-08T17:01:35;2.05;;;0.63;;
81894;SDS011;71358;45.642;13.758;2023-08-08T17:04:20;1.42;;;0.80;;
81894;SDS011;71358;45.642;13.758;2023-08-08T17:07:05;1.00;;;0.90;;
81894;SDS011;71358;45.642;13.758;2023-08-08T17:09:50;1.00;;;0.90;;
81894;SDS011;71358;45.642;13.758;2023-08-08T17:12:34;1.65;;;0.90;;
81894;SDS011;71358;45.642;13.758;2023-08-08T17:15:19;0.90;;;0.80;;
81894;SDS011;71358;45.642;13.758;2023-08-08T17:18:03;2.67;;;0.70;;
81894;SDS011;71358;45.642;13.758;2023-08-08T17:20:47;2.30;;;1.10;;
81894;SDS011;71358;45.642;13.758;2023-08-08T17:23:33;1.73;;;0.90;;
81894;SDS011;71358;45.642;13.758;2023-08-08T17:26:17;1.23;;;1.05;;
81894;SDS011;71358;45.642;13.758;2023-08-08T17:29:02;1.05;;;0.95;;
81894;SDS011;71358;45.642;13.758;2023-08-08T17:31:46;3.40;;;0.85;;
81894;SDS011;71358;45.642;13.758;2023-08-08T17:34:31;1.55;;;0.90;;
81894;SDS011;71358;45.642;13.758;2023-08-08T17:37:16;1.95;;;0.65;;
81894;SDS011;71358;45.642;13.758;2023-08-08T17:40:00;2.08;;;0.88;;
81894;SDS011;71358;45.642;13.758;2023-08-08T17:42:45;1.17;;;0.70;;
81894;SDS011;71358;45.642;13.758;2023-08-08T17:45:29;3.60;;;0.80;;
81894;SDS011;71358;45.642;13.758;2023-08-08T17:48:14;1.08;;;0.75;;
81894;SDS011;71358;45.642;13.758;2023-08-08T17:50:59;2.17;;;0.77;;
81894;SDS011;71358;45.642;13.758;2023-08-08T17:53:43;1.58;;;0.70;;
81894;SDS011;71358;45.642;13.758;2023-08-08T17:56:28;2.65;;;0.90;;
81894;SDS011;71358;45.642;13.758;2023-08-08T17:59:12;1.30;;;0.70;;
81894;SDS011;71358;45.642;13.758;2023-08-08T18:01:57;0.93;;;0.70;;
81894;SDS011;71358;45.642;13.758;2023-08-08T18:04:41;0.60;;;0.60;;
81894;SDS011;71358;45.642;13.758;2023-08-08T18:07:26;0.80;;;0.60;;
81894;SDS011;71358;45.642;13.758;2023-08-08T18:10:11;0.60;;;0.60;;
81894;SDS011;71358;45.642;13.758;2023-08-08T18:12:55;2.38;;;0.80;;
81894;SDS011;71358;45.642;13.758;2023-08-08T18:15:40;1.17;;;0.73;;
81894;SDS011;71358;45.642;13.758;2023-08-08T18:18:24;0.60;;;0.60;;
81894;SDS011;71358;45.642;13.758;2023-08-08T18:21:09;0.63;;;0.63;;
81894;SDS011;71358;45.642;13.758;2023-08-08T18:23:54;1.45;;;0.90;;
81894;SDS011;71358;45.642;13.758;2023-08-08T18:26:39;0.90;;;0.70;;
81894;SDS011;71358;45.642;13.758;2023-08-08T18:29:23;0.98;;;0.50;;
81894;SDS011;71358;45.642;13.758;2023-08-08T18:32:08;0.65;;;0.65;;
81894;SDS011;71358;45.642;13.758;2023-08-08T18:34:53;0.40;;;0.40;;
81894;SDS011;71358;45.642;13.758;2023-08-08T18:37:38;1.10;;;0.55;;
81894;SDS011;71358;45.642;13.758;2023-08-08T18:40:22;0.40;;;0.40;;
81894;SDS011;71358;45.642;13.758;2023-08-08T18:43:07;1.63;;;0.77;;
81894;SDS011;71358;45.642;13.758;2023-08-08T18:45:52;1.02;;;0.55;;
81894;SDS011;71358;45.642;13.758;2023-08-08T18:48:36;0.95;;;0.63;;
81894;SDS011;71358;45.642;13.758;2023-08-08T18:51:21;1.20;;;0.90;;
81894;SDS011;71358;45.642;13.758;2023-08-08T18:54:06;1.15;;;0.80;;
81894;SDS011;71358;45.642;13.758;2023-08-08T18:56:52;0.82;;;0.75;;
81894;SDS011;71358;45.642;13.758;2023-08-08T18:59:36;0.80;;;0.80;;
81894;SDS011;71358;45.642;13.758;2023-08-08T19:02:21;1.38;;;1.00;;
81894;SDS011;71358;45.642;13.758;2023-08-08T19:05:06;1.05;;;0.73;;
81894;SDS011;71358;45.642;13.758;2023-08-08T19:07:51;1.15;;;0.93;;
81894;SDS011;71358;45.642;13.758;2023-08-08T19:10:35;1.42;;;0.95;;
81894;SDS011;71358;45.642;13.758;2023-08-08T19:13:20;0.70;;;0.70;;
81894;SDS011;71358;45.642;13.758;2023-08-08T19:16:04;0.98;;;0.88;;
81894;SDS011;71358;45.642;13.758;2023-08-08T19:18:49;1.17;;;1.08;;
81894;SDS011;71358;45.642;13.758;2023-08-08T19:21:33;1.83;;;0.95;;
81894;SDS011;71358;45.642;13.758;2023-08-08T19:24:18;1.20;;;1.10;;
81894;SDS011;71358;45.642;13.758;2023-08-08T19:27:02;1.40;;;0.82;;
81894;SDS011;71358;45.642;13.758;2023-08-08T19:29:47;2.40;;;1.00;;
81894;SDS011;71358;45.642;13.758;2023-08-08T19:32:31;2.22;;;1.40;;
81894;SDS011;71358;45.642;13.758;2023-08-08T19:35:16;4.75;;;1.95;;
81894;SDS011;71358;45.642;13.758;2023-08-08T19:38:01;1.45;;;1.15;;
81894;SDS011;71358;45.642;13.758;2023-08-08T19:40:45;1.33;;;1.00;;
81894;SDS011;71358;45.642;13.758;2023-08-08T19:43:30;1.60;;;1.13;;
81894;SDS011;71358;45.642;13.758;2023-08-08T19:46:15;2.08;;;1.55;;
81894;SDS011;71358;45.642;13.758;2023-08-08T19:49:00;2.03;;;1.40;;
81894;SDS011;71358;45.642;13.758;2023-08-08T19:51:44;2.15;;;1.48;;
81894;SDS011;71358;45.642;13.758;2023-08-08T19:54:29;3.28;;;1.30;;
81894;SDS011;71358;45.642;13.758;2023-08-08T19:57:13;1.52;;;1.40;;
81894;SDS011;71358;45.642;13.758;2023-08-08T19:59:58;1.30;;;1.20;;
81894;SDS011;71358;45.642;13.758;2023-08-08T20:02:43;1.90;;;1.70;;
81894;SDS011;71358;45.642;13.758;2023-08-08T20:05:27;2.92;;;1.70;;
81894;SDS011;71358;45.642;13.758;2023-08-08T20:08:12;1.73;;;1.23;;
81894;SDS011;71358;45.642;13.758;2023-08-08T20:10:56;2.60;;;1.63;;
81894;SDS011;71358;45.642;13.758;2023-08-08T20:13:41;2.78;;;1.67;;
81894;SDS011;71358;45.642;13.758;2023-08-08T20:16:25;3.25;;;1.58;;
81894;SDS011;71358;45.642;13.758;2023-08-08T20:19:10;1.50;;;1.40;;
81894;SDS011;71358;45.642;13.758;2023-08-08T20:21:55;2.47;;;1.50;;
81894;SDS011;71358;45.642;13.758;2023-08-08T20:24:39;2.55;;;1.60;;
81894;SDS011;71358;45.642;13.758;2023-08-08T20:27:24;1.42;;;1.20;;
81894;SDS011;71358;45.642;13.758;2023-08-08T20:30:09;2.28;;;1.50;;
81894;SDS011;71358;45.642;13.758;2023-08-08T20:32:55;2.70;;;1.48;;
81894;SDS011;71358;45.642;13.758;2023-08-08T20:35:39;4.05;;;1.70;;
81894;SDS011;71358;45.642;13.758;2023-08-08T20:38:24;1.95;;;1.65;;
81894;SDS011;71358;45.642;13.758;2023-08-08T20:41:09;4.85;;;1.50;;
81894;SDS011;71358;45.642;13.758;2023-08-08T20:43:53;2.78;;;1.90;;
81894;SDS011;71358;45.642;13.758;2023-08-08T20:46:38;3.40;;;2.00;;
81894;SDS011;71358;45.642;13.758;2023-08-08T20:49:23;1.88;;;1.33;;
81894;SDS011;71358;45.642;13.758;2023-08-08T20:52:07;2.03;;;1.20;;
81894;SDS011;71358;45.642;13.758;2023-08-08T20:54:52;2.22;;;1.58;;
81894;SDS011;71358;45.642;13.758;2023-08-08T20:57:37;2.85;;;1.50;;
81894;SDS011;71358;45.642;13.758;2023-08-08T21:00:21;3.50;;;1.30;;
81894;SDS011;71358;45.642;13.758;2023-08-08T21:03:06;2.05;;;1.55;;
81894;SDS011;71358;45.642;13.758;2023-08-08T21:05:50;3.10;;;1.52;;
81894;SDS011;71358;45.642;13.758;2023-08-08T21:08:35;2.90;;;1.45;;
81894;SDS011;71358;45.642;13.758;2023-08-08T21:11:19;1.52;;;1.20;;
81894;SDS011;71358;45.642;13.758;2023-08-08T21:14:04;1.92;;;1.80;;
81894;SDS011;71358;45.642;13.758;2023-08-08T21:16:49;1.80;;;1.48;;
81894;SDS011;71358;45.642;13.758;2023-08-08T21:19:33;3.63;;;1.30;;
81894;SDS011;71358;45.642;13.758;2023-08-08T21:22:18;2.00;;;1.33;;
81894;SDS011;71358;45.642;13.758;2023-08-08T21:25:04;1.38;;;1.10;;
81894;SDS011;71358;45.642;13.758;2023-08-08T21:27:48;1.42;;;1.20;;
81894;SDS011;71358;45.642;13.758;2023-08-08T21:30:33;1.30;;;1.20;;
81894;SDS011;71358;45.642;13.758;2023-08-08T21:33:18;2.33;;;1.67;;
81894;SDS011;71358;45.642;13.758;2023-08-08T21:36:02;2.25;;;1.13;;
81894;SDS011;71358;45.642;13.758;2023-08-08T21:38:47;1.10;;;0.90;;
81894;SDS011;71358;45.642;13.758;2023-08-08T21:41:31;1.30;;;0.98;;
81894;SDS011;71358;45.642;13.758;2023-08-08T21:44:16;2.35;;;1.80;;
81894;SDS011;71358;45.642;13.758;2023-08-08T21:47:00;1.40;;;1.00;;
81894;SDS011;71358;45.642;13.758;2023-08-08T21:49:45;2.40;;;1.45;;
81894;SDS011;71358;45.642;13.758;2023-08-08T21:52:29;1.27;;;1.20;;
81894;SDS011;71358;45.642;13.758;2023-08-08T21:55:14;0.82;;;0.82;;
81894;SDS011;71358;45.642;13.758;2023-08-08T21:57:59;1.30;;;1.20;;
81894;SDS011;71358;45.642;13.758;2023-08-08T22:00:43;1.08;;;0.98;;
81894;SDS011;71358;45.642;13.758;2023-08-08T22:03:28;1.52;;;1.10;;
81894;SDS011;71358;45.642;13.758;2023-08-08T22:06:12;1.85;;;1.10;;
81894;SDS011;71358;45.642;13.758;2023-08-08T22:08:57;1.52;;;1.23;;
81894;SDS011;71358;45.642;13.758;2023-08-08T22:11:42;1.75;;;1.02;;
81894;SDS011;71358;45.642;13.758;2023-08-08T22:14:26;2.55;;;1.30;;
81894;SDS011;71358;45.642;13.758;2023-08-08T22:17:11;1.10;;;1.00;;
81894;SDS011;71358;45.642;13.758;2023-08-08T22:19:55;1.13;;;1.02;;
81894;SDS011;71358;45.642;13.758;2023-08-08T22:22:40;1.60;;;1.50;;
81894;SDS011;71358;45.642;13.758;2023-08-08T22:25:25;2.25;;;1.30;;
81894;SDS011;71358;45.642;13.758;2023-08-08T22:28:09;2.78;;;1.25;;
81894;SDS011;71358;45.642;13.758;2023-08-08T22:30:55;2.03;;;1.00;;
81894;SDS011;71358;45.642;13.758;2023-08-08T22:33:40;1.55;;;1.25;;
81894;SDS011;71358;45.642;13.758;2023-08-08T22:36:24;2.17;;;1.10;;
81894;SDS011;71358;45.642;13.758;2023-08-08T22:39:09;0.90;;;0.90;;
81894;SDS011;71358;45.642;13.758;2023-08-08T22:41:53;1.38;;;0.95;;
81894;SDS011;71358;45.642;13.758;2023-08-08T22:44:38;1.52;;;1.08;;
81894;SDS011;71358;45.642;13.758;2023-08-08T22:47:23;1.58;;;0.95;;
81894;SDS011;71358;45.642;13.758;2023-08-08T22:50:07;1.85;;;1.10;;
81894;SDS011;71358;45.642;13.758;2023-08-08T22:52:52;1.50;;;1.10;;
81894;SDS011;71358;45.642;13.758;2023-08-08T22:55:37;1.00;;;1.00;;
81894;SDS011;71358;45.642;13.758;2023-08-08T22:58:21;2.17;;;1.05;;
81894;SDS011;71358;45.642;13.758;2023-08-08T23:01:06;1.17;;;1.08;;
81894;SDS011;71358;45.642;13.758;2023-08-08T23:03:51;1.27;;;1.10;;
81894;SDS011;71358;45.642;13.758;2023-08-08T23:06:35;1.42;;;1.00;;
81894;SDS011;71358;45.642;13.758;2023-08-08T23:09:20;2.00;;;1.10;;
81894;SDS011;71358;45.642;13.758;2023-08-08T23:12:05;1.77;;;1.15;;
81894;SDS011;71358;45.642;13.758;2023-08-08T23:14:49;1.73;;;0.93;;
81894;SDS011;71358;45.642;13.758;2023-08-08T23:17:34;1.45;;;1.10;;
81894;SDS011;71358;45.642;13.758;2023-08-08T23:20:18;1.10;;;1.00;;
81894;SDS011;71358;45.642;13.758;2023-08-08T23:23:03;1.30;;;1.00;;
81894;SDS011;71358;45.642;13.758;2023-08-08T23:25:49;0.73;;;0.73;;
81894;SDS011;71358;45.642;13.758;2023-08-08T23:28:34;2.13;;;1.20;;
81894;SDS011;71358;45.642;13.758;2023-08-08T23:31:18;1.33;;;0.95;;
81894;SDS011;71358;45.642;13.758;2023-08-08T23:34:03;1.15;;;0.98;;
81894;SDS011;71358;45.642;13.758;2023-08-08T23:36:48;1.17;;;1.08;;
81894;SDS011;71358;45.642;13.758;2023-08-08T23:39:32;0.77;;;0.77;;
81894;SDS011;71358;45.642;13.758;2023-08-08T23:42:17;1.75;;;0.90;;
81894;SDS011;71358;45.642;13.758;2023-08-08T23:45:02;1.60;;;0.82;;
81894;SDS011;71358;45.642;13.758;2023-08-08T23:47:49;1.75;;;1.13;;
81894;SDS011;71358;45.642;13.758;2023-08-08T23:50:33;1.85;;;0.95;;
81894;SDS011;71358;45.642;13.758;2023-08-08T23:53:18;1.33;;;1.00;;
81894;SDS011;71358;45.642;13.758;2023-08-08T23:56:02;2.42;;;0.98;;
81894;SDS011;71358;45.642;13.758;2023-08-08T23:58:47;1.08;;;0.88;;
